sensor_id;sensor_type;location;lat;lon;timestamp;P1;durP1;ratioP1;P2;durP2;ratioP2
16665;SDS011;8446;50.998;6.250;2023-03-11T00:01:46;8.70;;;1.40;;
16665;SDS011;8446;50.998;6.250;2023-03-11T00:04:13;7.45;;;1.40;;
16665;SDS011;8446;50.998;6.250;2023-03-11T00:06:41;3.83;;;1.20;;
16665;SDS011;8446;50.998;6.250;2023-03-11T00:09:09;8.10;;;1.50;;
16665;SDS011;8446;50.998;6.250;2023-03-11T00:11:36;3.45;;;1.33;;
16665;SDS011;8446;50.998;6.250;2023-03-11T00:14:03;0.95;;;0.90;;
16665;SDS011;8446;50.998;6.250;2023-03-11T00:16:30;3.90;;;1.50;;
16665;SDS011;8446;50.998;6.250;2023-03-11T00:18:57;4.10;;;1.10;;
16665;SDS011;8446;50.998;6.250;2023-03-11T00:21:24;3.10;;;0.80;;
16665;SDS011;8446;50.998;6.250;2023-03-11T00:23:53;2.60;;;1.08;;
16665;SDS011;8446;50.998;6.250;2023-03-11T00:26:20;4.03;;;1.15;;
16665;SDS011;8446;50.998;6.250;2023-03-11T00:28:47;5.22;;;2.00;;
16665;SDS011;8446;50.998;6.250;2023-03-11T00:31:14;5.78;;;1.83;;
16665;SDS011;8446;50.998;6.250;2023-03-11T00:33:41;2.92;;;1.25;;
16665;SDS011;8446;50.998;6.250;2023-03-11T00:36:11;5.22;;;2.05;;
16665;SDS011;8446;50.998;6.250;2023-03-11T00:38:42;6.38;;;1.60;;
16665;SDS011;8446;50.998;6.250;2023-03-11T00:41:11;6.10;;;2.13;;
16665;SDS011;8446;50.998;6.250;2023-03-11T00:43:38;1.58;;;1.48;;
16665;SDS011;8446;50.998;6.250;2023-03-11T00:46:05;13.57;;;1.45;;
16665;SDS011;8446;50.998;6.250;2023-03-11T00:48:32;12.48;;;0.98;;
16665;SDS011;8446;50.998;6.250;2023-03-11T00:50:59;5.25;;;1.75;;
16665;SDS011;8446;50.998;6.250;2023-03-11T00:53:26;3.95;;;1.30;;
16665;SDS011;8446;50.998;6.250;2023-03-11T00:55:53;5.82;;;1.85;;
16665;SDS011;8446;50.998;6.250;2023-03-11T00:58:22;4.50;;;1.50;;
16665;SDS011;8446;50.998;6.250;2023-03-11T01:00:52;3.78;;;1.55;;
16665;SDS011;8446;50.998;6.250;2023-03-11T01:03:19;3.88;;;1.48;;
16665;SDS011;8446;50.998;6.250;2023-03-11T01:05:46;3.70;;;1.20;;
16665;SDS011;8446;50.998;6.250;2023-03-11T01:08:13;3.55;;;1.23;;
16665;SDS011;8446;50.998;6.250;2023-03-11T01:10:41;3.88;;;1.20;;
16665;SDS011;8446;50.998;6.250;2023-03-11T01:13:08;3.05;;;1.40;;
16665;SDS011;8446;50.998;6.250;2023-03-11T01:15:36;8.07;;;1.20;;
16665;SDS011;8446;50.998;6.250;2023-03-11T01:18:03;9.95;;;1.33;;
16665;SDS011;8446;50.998;6.250;2023-03-11T01:20:31;9.52;;;1.63;;
16665;SDS011;8446;50.998;6.250;2023-03-11T01:22:58;5.22;;;1.20;;
16665;SDS011;8446;50.998;6.250;2023-03-11T01:25:25;2.80;;;1.42;;
16665;SDS011;8446;50.998;6.250;2023-03-11T01:27:52;3.65;;;1.80;;
16665;SDS011;8446;50.998;6.250;2023-03-11T01:30:20;4.90;;;1.30;;
16665;SDS011;8446;50.998;6.250;2023-03-11T01:32:50;4.53;;;1.20;;
16665;SDS011;8446;50.998;6.250;2023-03-11T01:35:17;4.60;;;1.15;;
16665;SDS011;8446;50.998;6.250;2023-03-11T01:37:45;2.72;;;1.30;;
16665;SDS011;8446;50.998;6.250;2023-03-11T01:40:13;10.85;;;1.48;;
16665;SDS011;8446;50.998;6.250;2023-03-11T01:42:41;2.47;;;1.20;;
16665;SDS011;8446;50.998;6.250;2023-03-11T01:45:25;7.53;;;1.70;;
16665;SDS011;8446;50.998;6.250;2023-03-11T01:47:56;8.38;;;1.75;;
16665;SDS011;8446;50.998;6.250;2023-03-11T01:50:23;13.27;;;1.10;;
16665;SDS011;8446;50.998;6.250;2023-03-11T01:52:51;1.52;;;1.40;;
16665;SDS011;8446;50.998;6.250;2023-03-11T01:55:19;8.75;;;1.65;;
16665;SDS011;8446;50.998;6.250;2023-03-11T01:57:46;7.68;;;1.70;;
16665;SDS011;8446;50.998;6.250;2023-03-11T02:00:14;4.20;;;2.13;;
16665;SDS011;8446;50.998;6.250;2023-03-11T02:02:42;9.43;;;1.83;;
16665;SDS011;8446;50.998;6.250;2023-03-11T02:05:12;5.20;;;1.35;;
16665;SDS011;8446;50.998;6.250;2023-03-11T02:07:40;10.90;;;1.67;;
16665;SDS011;8446;50.998;6.250;2023-03-11T02:10:08;1.58;;;1.48;;
16665;SDS011;8446;50.998;6.250;2023-03-11T02:12:37;2.22;;;1.55;;
16665;SDS011;8446;50.998;6.250;2023-03-11T02:15:05;5.60;;;1.80;;
16665;SDS011;8446;50.998;6.250;2023-03-11T02:17:32;2.20;;;1.83;;
16665;SDS011;8446;50.998;6.250;2023-03-11T02:20:13;9.55;;;1.88;;
16665;SDS011;8446;50.998;6.250;2023-03-11T02:22:42;6.30;;;1.40;;
16665;SDS011;8446;50.998;6.250;2023-03-11T02:25:10;7.80;;;1.17;;
16665;SDS011;8446;50.998;6.250;2023-03-11T02:27:42;10.57;;;1.40;;
16665;SDS011;8446;50.998;6.250;2023-03-11T02:30:11;14.48;;;1.30;;
16665;SDS011;8446;50.998;6.250;2023-03-11T02:32:40;2.03;;;1.15;;
16665;SDS011;8446;50.998;6.250;2023-03-11T02:35:08;2.58;;;1.30;;
16665;SDS011;8446;50.998;6.250;2023-03-11T02:37:35;4.40;;;2.08;;
16665;SDS011;8446;50.998;6.250;2023-03-11T02:40:19;6.63;;;1.77;;
16665;SDS011;8446;50.998;6.250;2023-03-11T02:42:56;2.53;;;1.63;;
16665;SDS011;8446;50.998;6.250;2023-03-11T02:45:24;3.13;;;1.90;;
16665;SDS011;8446;50.998;6.250;2023-03-11T02:47:53;3.78;;;1.60;;
16665;SDS011;8446;50.998;6.250;2023-03-11T02:50:21;5.93;;;1.55;;
16665;SDS011;8446;50.998;6.250;2023-03-11T02:52:52;8.30;;;2.08;;
16665;SDS011;8446;50.998;6.250;2023-03-11T02:55:19;1.65;;;1.52;;
16665;SDS011;8446;50.998;6.250;2023-03-11T02:57:46;10.23;;;2.55;;
16665;SDS011;8446;50.998;6.250;2023-03-11T03:00:16;3.22;;;1.80;;
16665;SDS011;8446;50.998;6.250;2023-03-11T03:02:43;9.73;;;2.08;;
16665;SDS011;8446;50.998;6.250;2023-03-11T03:05:11;12.20;;;2.15;;
16665;SDS011;8446;50.998;6.250;2023-03-11T03:07:38;29.45;;;2.95;;
16665;SDS011;8446;50.998;6.250;2023-03-11T03:10:06;6.60;;;1.98;;
16665;SDS011;8446;50.998;6.250;2023-03-11T03:12:33;6.90;;;2.40;;
16665;SDS011;8446;50.998;6.250;2023-03-11T03:15:00;1.52;;;1.42;;
16665;SDS011;8446;50.998;6.250;2023-03-11T03:17:29;5.47;;;1.73;;
16665;SDS011;8446;50.998;6.250;2023-03-11T03:19:56;2.03;;;1.85;;
16665;SDS011;8446;50.998;6.250;2023-03-11T03:22:23;3.03;;;1.65;;
16665;SDS011;8446;50.998;6.250;2023-03-11T03:24:51;5.25;;;1.55;;
16665;SDS011;8446;50.998;6.250;2023-03-11T03:27:18;4.82;;;1.40;;
16665;SDS011;8446;50.998;6.250;2023-03-11T03:29:45;4.55;;;1.80;;
16665;SDS011;8446;50.998;6.250;2023-03-11T03:32:13;4.70;;;1.90;;
16665;SDS011;8446;50.998;6.250;2023-03-11T03:34:41;3.70;;;1.85;;
16665;SDS011;8446;50.998;6.250;2023-03-11T03:37:08;2.67;;;1.48;;
16665;SDS011;8446;50.998;6.250;2023-03-11T03:39:35;10.80;;;2.40;;
16665;SDS011;8446;50.998;6.250;2023-03-11T03:42:03;6.75;;;2.35;;
16665;SDS011;8446;50.998;6.250;2023-03-11T03:44:30;12.73;;;2.47;;
16665;SDS011;8446;50.998;6.250;2023-03-11T03:46:57;5.57;;;2.13;;
16665;SDS011;8446;50.998;6.250;2023-03-11T03:49:25;7.57;;;2.28;;
16665;SDS011;8446;50.998;6.250;2023-03-11T03:51:53;6.25;;;2.50;;
16665;SDS011;8446;50.998;6.250;2023-03-11T03:54:21;8.73;;;2.10;;
16665;SDS011;8446;50.998;6.250;2023-03-11T03:56:48;3.33;;;2.13;;
16665;SDS011;8446;50.998;6.250;2023-03-11T03:59:15;12.93;;;2.20;;
16665;SDS011;8446;50.998;6.250;2023-03-11T04:01:42;2.13;;;1.92;;
16665;SDS011;8446;50.998;6.250;2023-03-11T04:04:09;7.20;;;2.83;;
16665;SDS011;8446;50.998;6.250;2023-03-11T04:06:36;3.20;;;2.25;;
16665;SDS011;8446;50.998;6.250;2023-03-11T04:09:04;3.00;;;2.03;;
16665;SDS011;8446;50.998;6.250;2023-03-11T04:11:31;4.57;;;2.35;;
16665;SDS011;8446;50.998;6.250;2023-03-11T04:13:59;5.30;;;1.85;;
16665;SDS011;8446;50.998;6.250;2023-03-11T04:16:26;7.45;;;2.30;;
16665;SDS011;8446;50.998;6.250;2023-03-11T04:18:53;4.32;;;2.50;;
16665;SDS011;8446;50.998;6.250;2023-03-11T04:21:20;6.85;;;2.60;;
16665;SDS011;8446;50.998;6.250;2023-03-11T04:23:47;7.93;;;3.00;;
16665;SDS011;8446;50.998;6.250;2023-03-11T04:26:16;2.88;;;2.28;;
16665;SDS011;8446;50.998;6.250;2023-03-11T04:28:43;3.88;;;2.22;;
16665;SDS011;8446;50.998;6.250;2023-03-11T04:31:10;6.43;;;2.30;;
16665;SDS011;8446;50.998;6.250;2023-03-11T04:33:37;6.32;;;2.15;;
16665;SDS011;8446;50.998;6.250;2023-03-11T04:36:05;3.92;;;3.33;;
16665;SDS011;8446;50.998;6.250;2023-03-11T04:38:32;7.40;;;2.85;;
16665;SDS011;8446;50.998;6.250;2023-03-11T04:40:59;9.35;;;2.70;;
16665;SDS011;8446;50.998;6.250;2023-03-11T04:43:28;15.07;;;2.85;;
16665;SDS011;8446;50.998;6.250;2023-03-11T04:45:55;10.95;;;3.20;;
16665;SDS011;8446;50.998;6.250;2023-03-11T04:48:22;9.77;;;2.67;;
16665;SDS011;8446;50.998;6.250;2023-03-11T04:50:51;8.25;;;2.95;;
16665;SDS011;8446;50.998;6.250;2023-03-11T04:53:19;5.40;;;3.00;;
16665;SDS011;8446;50.998;6.250;2023-03-11T04:55:46;10.13;;;3.00;;
16665;SDS011;8446;50.998;6.250;2023-03-11T04:58:14;3.80;;;2.35;;
16665;SDS011;8446;50.998;6.250;2023-03-11T05:00:42;5.68;;;2.85;;
16665;SDS011;8446;50.998;6.250;2023-03-11T05:03:10;7.47;;;3.20;;
16665;SDS011;8446;50.998;6.250;2023-03-11T05:05:37;8.55;;;2.70;;
16665;SDS011;8446;50.998;6.250;2023-03-11T05:08:04;8.20;;;2.80;;
16665;SDS011;8446;50.998;6.250;2023-03-11T05:10:31;5.30;;;3.10;;
16665;SDS011;8446;50.998;6.250;2023-03-11T05:12:58;8.85;;;3.92;;
16665;SDS011;8446;50.998;6.250;2023-03-11T05:15:25;7.05;;;2.60;;
16665;SDS011;8446;50.998;6.250;2023-03-11T05:17:56;7.50;;;3.97;;
16665;SDS011;8446;50.998;6.250;2023-03-11T05:20:24;4.72;;;2.60;;
16665;SDS011;8446;50.998;6.250;2023-03-11T05:22:51;5.18;;;2.90;;
16665;SDS011;8446;50.998;6.250;2023-03-11T05:25:18;13.98;;;3.33;;
16665;SDS011;8446;50.998;6.250;2023-03-11T05:27:45;14.75;;;3.15;;
16665;SDS011;8446;50.998;6.250;2023-03-11T05:30:12;7.93;;;3.80;;
16665;SDS011;8446;50.998;6.250;2023-03-11T05:32:40;5.25;;;3.17;;
16665;SDS011;8446;50.998;6.250;2023-03-11T05:35:08;4.40;;;3.75;;
16665;SDS011;8446;50.998;6.250;2023-03-11T05:37:35;8.43;;;3.80;;
16665;SDS011;8446;50.998;6.250;2023-03-11T05:40:03;11.73;;;4.28;;
16665;SDS011;8446;50.998;6.250;2023-03-11T05:42:31;5.60;;;3.25;;
16665;SDS011;8446;50.998;6.250;2023-03-11T05:44:58;4.85;;;3.63;;
16665;SDS011;8446;50.998;6.250;2023-03-11T05:47:25;9.15;;;3.67;;
16665;SDS011;8446;50.998;6.250;2023-03-11T05:49:53;4.90;;;3.13;;
16665;SDS011;8446;50.998;6.250;2023-03-11T05:52:21;9.70;;;3.65;;
16665;SDS011;8446;50.998;6.250;2023-03-11T05:54:48;6.30;;;3.40;;
16665;SDS011;8446;50.998;6.250;2023-03-11T05:57:16;11.55;;;3.53;;
16665;SDS011;8446;50.998;6.250;2023-03-11T05:59:43;6.03;;;3.15;;
16665;SDS011;8446;50.998;6.250;2023-03-11T06:02:10;7.38;;;3.75;;
16665;SDS011;8446;50.998;6.250;2023-03-11T06:04:37;5.10;;;3.30;;
16665;SDS011;8446;50.998;6.250;2023-03-11T06:07:04;4.20;;;3.42;;
16665;SDS011;8446;50.998;6.250;2023-03-11T06:09:33;7.90;;;4.40;;
16665;SDS011;8446;50.998;6.250;2023-03-11T06:12:01;4.47;;;2.70;;
16665;SDS011;8446;50.998;6.250;2023-03-11T06:14:28;4.90;;;2.90;;
16665;SDS011;8446;50.998;6.250;2023-03-11T06:16:56;9.93;;;3.75;;
16665;SDS011;8446;50.998;6.250;2023-03-11T06:19:23;10.65;;;3.85;;
16665;SDS011;8446;50.998;6.250;2023-03-11T06:21:50;7.63;;;3.65;;
16665;SDS011;8446;50.998;6.250;2023-03-11T06:24:17;3.85;;;3.35;;
16665;SDS011;8446;50.998;6.250;2023-03-11T06:26:49;4.88;;;3.22;;
16665;SDS011;8446;50.998;6.250;2023-03-11T06:29:16;9.95;;;3.60;;
16665;SDS011;8446;50.998;6.250;2023-03-11T06:31:43;5.45;;;3.00;;
16665;SDS011;8446;50.998;6.250;2023-03-11T06:34:10;6.70;;;3.22;;
16665;SDS011;8446;50.998;6.250;2023-03-11T06:36:39;18.75;;;3.78;;
16665;SDS011;8446;50.998;6.250;2023-03-11T06:39:06;9.07;;;3.88;;
16665;SDS011;8446;50.998;6.250;2023-03-11T06:41:34;10.60;;;3.70;;
16665;SDS011;8446;50.998;6.250;2023-03-11T06:44:02;12.10;;;4.07;;
16665;SDS011;8446;50.998;6.250;2023-03-11T06:46:29;9.13;;;3.45;;
16665;SDS011;8446;50.998;6.250;2023-03-11T06:48:57;8.40;;;4.00;;
16665;SDS011;8446;50.998;6.250;2023-03-11T06:51:24;19.73;;;5.78;;
16665;SDS011;8446;50.998;6.250;2023-03-11T06:53:51;16.55;;;3.83;;
16665;SDS011;8446;50.998;6.250;2023-03-11T06:56:19;6.80;;;4.05;;
16665;SDS011;8446;50.998;6.250;2023-03-11T06:58:47;7.32;;;4.30;;
16665;SDS011;8446;50.998;6.250;2023-03-11T07:01:16;12.57;;;4.40;;
16665;SDS011;8446;50.998;6.250;2023-03-11T07:03:44;7.35;;;3.63;;
16665;SDS011;8446;50.998;6.250;2023-03-11T07:06:12;4.53;;;3.67;;
16665;SDS011;8446;50.998;6.250;2023-03-11T07:08:39;18.58;;;4.80;;
16665;SDS011;8446;50.998;6.250;2023-03-11T07:11:07;10.93;;;5.05;;
16665;SDS011;8446;50.998;6.250;2023-03-11T07:13:35;12.88;;;4.85;;
16665;SDS011;8446;50.998;6.250;2023-03-11T07:16:03;6.65;;;3.78;;
16665;SDS011;8446;50.998;6.250;2023-03-11T07:18:32;4.40;;;3.65;;
16665;SDS011;8446;50.998;6.250;2023-03-11T07:21:00;10.23;;;4.45;;
16665;SDS011;8446;50.998;6.250;2023-03-11T07:23:27;9.20;;;3.92;;
16665;SDS011;8446;50.998;6.250;2023-03-11T07:25:54;4.30;;;3.33;;
16665;SDS011;8446;50.998;6.250;2023-03-11T07:28:21;7.10;;;3.95;;
16665;SDS011;8446;50.998;6.250;2023-03-11T07:30:48;6.75;;;4.70;;
16665;SDS011;8446;50.998;6.250;2023-03-11T07:33:16;9.63;;;3.88;;
16665;SDS011;8446;50.998;6.250;2023-03-11T07:35:44;6.45;;;4.25;;
16665;SDS011;8446;50.998;6.250;2023-03-11T07:38:13;6.43;;;4.50;;
16665;SDS011;8446;50.998;6.250;2023-03-11T07:40:40;15.60;;;5.10;;
16665;SDS011;8446;50.998;6.250;2023-03-11T07:43:08;5.65;;;4.28;;
16665;SDS011;8446;50.998;6.250;2023-03-11T07:45:35;7.28;;;4.60;;
16665;SDS011;8446;50.998;6.250;2023-03-11T07:48:02;6.65;;;4.90;;
16665;SDS011;8446;50.998;6.250;2023-03-11T07:50:29;8.60;;;5.05;;
16665;SDS011;8446;50.998;6.250;2023-03-11T07:52:58;14.68;;;5.18;;
16665;SDS011;8446;50.998;6.250;2023-03-11T07:55:25;14.27;;;5.18;;
16665;SDS011;8446;50.998;6.250;2023-03-11T07:57:52;7.00;;;4.82;;
16665;SDS011;8446;50.998;6.250;2023-03-11T08:00:19;8.85;;;5.20;;
16665;SDS011;8446;50.998;6.250;2023-03-11T08:02:47;6.78;;;4.20;;
16665;SDS011;8446;50.998;6.250;2023-03-11T08:05:14;14.30;;;5.03;;
16665;SDS011;8446;50.998;6.250;2023-03-11T08:07:42;9.30;;;4.97;;
16665;SDS011;8446;50.998;6.250;2023-03-11T08:10:11;10.20;;;4.60;;
16665;SDS011;8446;50.998;6.250;2023-03-11T08:12:38;14.13;;;5.30;;
16665;SDS011;8446;50.998;6.250;2023-03-11T08:15:06;13.48;;;4.53;;
16665;SDS011;8446;50.998;6.250;2023-03-11T08:17:33;7.75;;;5.03;;
16665;SDS011;8446;50.998;6.250;2023-03-11T08:20:00;7.45;;;4.60;;
16665;SDS011;8446;50.998;6.250;2023-03-11T08:22:29;11.45;;;4.90;;
16665;SDS011;8446;50.998;6.250;2023-03-11T08:24:56;16.63;;;5.15;;
16665;SDS011;8446;50.998;6.250;2023-03-11T08:27:26;18.08;;;4.38;;
16665;SDS011;8446;50.998;6.250;2023-03-11T08:29:53;7.90;;;4.63;;
16665;SDS011;8446;50.998;6.250;2023-03-11T08:32:20;16.05;;;5.70;;
16665;SDS011;8446;50.998;6.250;2023-03-11T08:34:47;15.85;;;4.53;;
16665;SDS011;8446;50.998;6.250;2023-03-11T08:37:14;8.93;;;4.43;;
16665;SDS011;8446;50.998;6.250;2023-03-11T08:39:41;9.35;;;4.00;;
16665;SDS011;8446;50.998;6.250;2023-03-11T08:42:08;7.03;;;4.40;;
16665;SDS011;8446;50.998;6.250;2023-03-11T08:44:37;13.38;;;5.65;;
16665;SDS011;8446;50.998;6.250;2023-03-11T08:47:04;7.38;;;4.63;;
16665;SDS011;8446;50.998;6.250;2023-03-11T08:49:31;10.73;;;4.65;;
16665;SDS011;8446;50.998;6.250;2023-03-11T08:51:59;8.68;;;4.30;;
16665;SDS011;8446;50.998;6.250;2023-03-11T08:54:27;6.68;;;4.38;;
16665;SDS011;8446;50.998;6.250;2023-03-11T08:56:54;9.82;;;4.18;;
16665;SDS011;8446;50.998;6.250;2023-03-11T08:59:21;10.20;;;3.63;;
16665;SDS011;8446;50.998;6.250;2023-03-11T09:01:52;6.72;;;3.47;;
16665;SDS011;8446;50.998;6.250;2023-03-11T09:04:19;3.92;;;3.35;;
16665;SDS011;8446;50.998;6.250;2023-03-11T09:06:46;3.47;;;3.15;;
16665;SDS011;8446;50.998;6.250;2023-03-11T09:09:14;6.53;;;2.67;;
16665;SDS011;8446;50.998;6.250;2023-03-11T09:11:43;8.03;;;3.00;;
16665;SDS011;8446;50.998;6.250;2023-03-11T09:14:10;8.37;;;2.13;;
16665;SDS011;8446;50.998;6.250;2023-03-11T09:16:37;3.93;;;2.30;;
16665;SDS011;8446;50.998;6.250;2023-03-11T09:19:06;3.97;;;1.87;;
16665;SDS011;8446;50.998;6.250;2023-03-11T09:21:33;4.93;;;1.77;;
16665;SDS011;8446;50.998;6.250;2023-03-11T09:24:00;3.30;;;1.97;;
16665;SDS011;8446;50.998;6.250;2023-03-11T09:26:28;3.43;;;1.50;;
16665;SDS011;8446;50.998;6.250;2023-03-11T09:28:56;3.73;;;2.13;;
16665;SDS011;8446;50.998;6.250;2023-03-11T09:31:23;9.70;;;1.80;;
16665;SDS011;8446;50.998;6.250;2023-03-11T09:33:50;2.93;;;2.20;;
16665;SDS011;8446;50.998;6.250;2023-03-11T09:36:21;5.83;;;1.90;;
16665;SDS011;8446;50.998;6.250;2023-03-11T09:38:48;4.23;;;2.17;;
16665;SDS011;8446;50.998;6.250;2023-03-11T09:41:21;3.90;;;1.97;;
16665;SDS011;8446;50.998;6.250;2023-03-11T09:43:54;8.27;;;1.93;;
16665;SDS011;8446;50.998;6.250;2023-03-11T09:49:11;5.03;;;1.50;;
16665;SDS011;8446;50.998;6.250;2023-03-11T09:51:41;7.40;;;2.30;;
16665;SDS011;8446;50.998;6.250;2023-03-11T09:54:11;3.20;;;1.63;;
16665;SDS011;8446;50.998;6.250;2023-03-11T09:56:39;3.57;;;1.60;;
16665;SDS011;8446;50.998;6.250;2023-03-11T09:59:12;3.57;;;1.73;;
16665;SDS011;8446;50.998;6.250;2023-03-11T10:01:40;3.77;;;1.33;;
16665;SDS011;8446;50.998;6.250;2023-03-11T10:04:09;2.53;;;1.03;;
16665;SDS011;8446;50.998;6.250;2023-03-11T10:06:39;3.30;;;1.20;;
16665;SDS011;8446;50.998;6.250;2023-03-11T10:09:13;2.27;;;1.10;;
16665;SDS011;8446;50.998;6.250;2023-03-11T10:11:49;2.00;;;0.97;;
16665;SDS011;8446;50.998;6.250;2023-03-11T10:14:24;2.50;;;1.13;;
16665;SDS011;8446;50.998;6.250;2023-03-11T10:16:55;1.73;;;0.80;;
16665;SDS011;8446;50.998;6.250;2023-03-11T10:19:29;3.87;;;1.10;;
16665;SDS011;8446;50.998;6.250;2023-03-11T10:22:00;1.20;;;1.07;;
16665;SDS011;8446;50.998;6.250;2023-03-11T10:24:35;3.73;;;1.33;;
16665;SDS011;8446;50.998;6.250;2023-03-11T10:27:07;5.40;;;0.70;;
16665;SDS011;8446;50.998;6.250;2023-03-11T10:29:38;1.40;;;0.70;;
16665;SDS011;8446;50.998;6.250;2023-03-11T10:32:09;3.00;;;1.10;;
16665;SDS011;8446;50.998;6.250;2023-03-11T10:34:39;3.17;;;1.00;;
16665;SDS011;8446;50.998;6.250;2023-03-11T10:37:09;3.17;;;1.10;;
16665;SDS011;8446;50.998;6.250;2023-03-11T10:39:39;3.23;;;1.27;;
16665;SDS011;8446;50.998;6.250;2023-03-11T10:42:09;1.13;;;1.07;;
16665;SDS011;8446;50.998;6.250;2023-03-11T10:44:38;7.20;;;0.90;;
16665;SDS011;8446;50.998;6.250;2023-03-11T10:47:06;4.00;;;1.13;;
16665;SDS011;8446;50.998;6.250;2023-03-11T10:49:38;8.43;;;1.13;;
16665;SDS011;8446;50.998;6.250;2023-03-11T10:52:05;2.37;;;0.83;;
16665;SDS011;8446;50.998;6.250;2023-03-11T10:54:33;5.60;;;1.00;;
16665;SDS011;8446;50.998;6.250;2023-03-11T10:57:04;1.30;;;0.83;;
16665;SDS011;8446;50.998;6.250;2023-03-11T10:59:32;1.53;;;0.70;;
16665;SDS011;8446;50.998;6.250;2023-03-11T11:02:02;5.70;;;1.13;;
16665;SDS011;8446;50.998;6.250;2023-03-11T11:04:33;4.10;;;1.40;;
16665;SDS011;8446;50.998;6.250;2023-03-11T11:07:20;2.10;;;1.10;;
16665;SDS011;8446;50.998;6.250;2023-03-11T11:09:50;3.77;;;1.17;;
16665;SDS011;8446;50.998;6.250;2023-03-11T11:12:36;3.87;;;1.00;;
16665;SDS011;8446;50.998;6.250;2023-03-11T11:15:04;2.00;;;0.80;;
16665;SDS011;8446;50.998;6.250;2023-03-11T11:17:32;1.00;;;0.83;;
16665;SDS011;8446;50.998;6.250;2023-03-11T11:19:59;13.30;;;2.13;;
16665;SDS011;8446;50.998;6.250;2023-03-11T11:22:37;1.70;;;1.00;;
16665;SDS011;8446;50.998;6.250;2023-03-11T11:25:22;2.65;;;1.75;;
16665;SDS011;8446;50.998;6.250;2023-03-11T11:27:53;4.80;;;1.10;;
16665;SDS011;8446;50.998;6.250;2023-03-11T11:30:21;2.35;;;1.05;;
16665;SDS011;8446;50.998;6.250;2023-03-11T11:32:48;3.63;;;1.67;;
16665;SDS011;8446;50.998;6.250;2023-03-11T11:35:18;5.55;;;1.10;;
16665;SDS011;8446;50.998;6.250;2023-03-11T11:37:47;4.20;;;1.20;;
16665;SDS011;8446;50.998;6.250;2023-03-11T11:40:24;3.53;;;1.08;;
16665;SDS011;8446;50.998;6.250;2023-03-11T11:42:53;1.50;;;0.85;;
16665;SDS011;8446;50.998;6.250;2023-03-11T11:45:23;4.88;;;1.10;;
16665;SDS011;8446;50.998;6.250;2023-03-11T11:47:53;1.10;;;0.87;;
16665;SDS011;8446;50.998;6.250;2023-03-11T11:50:23;1.77;;;1.00;;
16665;SDS011;8446;50.998;6.250;2023-03-11T11:52:52;3.00;;;1.23;;
16665;SDS011;8446;50.998;6.250;2023-03-11T11:55:21;0.90;;;0.80;;
16665;SDS011;8446;50.998;6.250;2023-03-11T11:57:50;3.77;;;1.30;;
16665;SDS011;8446;50.998;6.250;2023-03-11T12:00:19;2.60;;;1.27;;
16665;SDS011;8446;50.998;6.250;2023-03-11T12:02:59;2.17;;;1.00;;
16665;SDS011;8446;50.998;6.250;2023-03-11T12:05:31;1.40;;;1.00;;
16665;SDS011;8446;50.998;6.250;2023-03-11T12:08:05;4.97;;;1.03;;
16665;SDS011;8446;50.998;6.250;2023-03-11T12:10:35;3.00;;;1.00;;
16665;SDS011;8446;50.998;6.250;2023-03-11T12:13:13;2.53;;;1.17;;
16665;SDS011;8446;50.998;6.250;2023-03-11T12:15:46;2.93;;;0.90;;
16665;SDS011;8446;50.998;6.250;2023-03-11T12:18:16;5.23;;;1.27;;
16665;SDS011;8446;50.998;6.250;2023-03-11T12:20:48;5.50;;;1.40;;
16665;SDS011;8446;50.998;6.250;2023-03-11T12:23:19;3.00;;;1.17;;
16665;SDS011;8446;50.998;6.250;2023-03-11T12:25:56;4.83;;;1.20;;
16665;SDS011;8446;50.998;6.250;2023-03-11T12:28:30;4.40;;;1.10;;
16665;SDS011;8446;50.998;6.250;2023-03-11T12:31:01;6.70;;;1.30;;
16665;SDS011;8446;50.998;6.250;2023-03-11T12:33:30;3.60;;;1.43;;
16665;SDS011;8446;50.998;6.250;2023-03-11T12:35:58;2.77;;;0.93;;
16665;SDS011;8446;50.998;6.250;2023-03-11T12:38:27;6.97;;;1.10;;
16665;SDS011;8446;50.998;6.250;2023-03-11T12:40:58;6.30;;;1.43;;
16665;SDS011;8446;50.998;6.250;2023-03-11T12:43:27;3.30;;;1.50;;
16665;SDS011;8446;50.998;6.250;2023-03-11T12:45:54;6.13;;;1.50;;
16665;SDS011;8446;50.998;6.250;2023-03-11T12:48:34;1.60;;;1.00;;
16665;SDS011;8446;50.998;6.250;2023-03-11T12:51:02;4.83;;;1.37;;
16665;SDS011;8446;50.998;6.250;2023-03-11T12:53:43;1.80;;;0.80;;
16665;SDS011;8446;50.998;6.250;2023-03-11T12:56:13;1.70;;;1.20;;
16665;SDS011;8446;50.998;6.250;2023-03-11T12:58:53;1.47;;;1.00;;
16665;SDS011;8446;50.998;6.250;2023-03-11T13:01:32;3.80;;;0.87;;
16665;SDS011;8446;50.998;6.250;2023-03-11T13:04:10;3.23;;;1.00;;
16665;SDS011;8446;50.998;6.250;2023-03-11T13:09:23;4.50;;;1.30;;
16665;SDS011;8446;50.998;6.250;2023-03-11T13:11:50;2.73;;;1.10;;
16665;SDS011;8446;50.998;6.250;2023-03-11T13:19:57;4.20;;;1.20;;
16665;SDS011;8446;50.998;6.250;2023-03-11T13:25:26;2.73;;;1.20;;
16665;SDS011;8446;50.998;6.250;2023-03-11T13:27:54;7.03;;;1.40;;
16665;SDS011;8446;50.998;6.250;2023-03-11T13:30:23;2.60;;;1.30;;
16665;SDS011;8446;50.998;6.250;2023-03-11T13:33:01;6.53;;;1.40;;
16665;SDS011;8446;50.998;6.250;2023-03-11T13:35:42;3.60;;;1.10;;
16665;SDS011;8446;50.998;6.250;2023-03-11T13:38:12;5.30;;;2.40;;
16665;SDS011;8446;50.998;6.250;2023-03-11T13:40:43;3.43;;;1.20;;
16665;SDS011;8446;50.998;6.250;2023-03-11T13:43:11;2.40;;;1.37;;
16665;SDS011;8446;50.998;6.250;2023-03-11T13:45:40;2.27;;;1.17;;
16665;SDS011;8446;50.998;6.250;2023-03-11T13:48:13;3.57;;;1.43;;
16665;SDS011;8446;50.998;6.250;2023-03-11T13:50:42;2.97;;;1.30;;
16665;SDS011;8446;50.998;6.250;2023-03-11T13:53:15;4.30;;;1.20;;
16665;SDS011;8446;50.998;6.250;2023-03-11T13:55:44;2.87;;;1.10;;
16665;SDS011;8446;50.998;6.250;2023-03-11T13:58:15;1.67;;;1.13;;
16665;SDS011;8446;50.998;6.250;2023-03-11T14:00:46;1.83;;;1.30;;
16665;SDS011;8446;50.998;6.250;2023-03-11T14:03:14;4.50;;;1.50;;
16665;SDS011;8446;50.998;6.250;2023-03-11T14:05:47;3.07;;;1.23;;
16665;SDS011;8446;50.998;6.250;2023-03-11T14:08:19;7.23;;;1.50;;
16665;SDS011;8446;50.998;6.250;2023-03-11T14:10:50;2.27;;;1.20;;
16665;SDS011;8446;50.998;6.250;2023-03-11T14:13:18;4.53;;;1.10;;
16665;SDS011;8446;50.998;6.250;2023-03-11T14:15:50;2.67;;;1.40;;
16665;SDS011;8446;50.998;6.250;2023-03-11T14:18:24;2.80;;;1.30;;
16665;SDS011;8446;50.998;6.250;2023-03-11T14:20:53;1.00;;;0.97;;
16665;SDS011;8446;50.998;6.250;2023-03-11T14:23:20;7.40;;;1.57;;
16665;SDS011;8446;50.998;6.250;2023-03-11T14:25:47;3.80;;;1.20;;
16665;SDS011;8446;50.998;6.250;2023-03-11T14:28:16;5.60;;;1.60;;
16665;SDS011;8446;50.998;6.250;2023-03-11T14:30:53;6.70;;;1.43;;
16665;SDS011;8446;50.998;6.250;2023-03-11T14:33:22;1.60;;;1.20;;
16665;SDS011;8446;50.998;6.250;2023-03-11T14:35:54;1.33;;;1.20;;
16665;SDS011;8446;50.998;6.250;2023-03-11T14:38:23;1.73;;;1.10;;
16665;SDS011;8446;50.998;6.250;2023-03-11T14:40:50;1.23;;;1.07;;
16665;SDS011;8446;50.998;6.250;2023-03-11T14:43:19;2.70;;;1.10;;
16665;SDS011;8446;50.998;6.250;2023-03-11T14:45:46;6.23;;;1.30;;
16665;SDS011;8446;50.998;6.250;2023-03-11T14:48:15;3.83;;;1.40;;
16665;SDS011;8446;50.998;6.250;2023-03-11T14:50:45;4.67;;;1.60;;
16665;SDS011;8446;50.998;6.250;2023-03-11T14:53:16;5.30;;;2.33;;
16665;SDS011;8446;50.998;6.250;2023-03-11T14:55:45;3.53;;;1.80;;
16665;SDS011;8446;50.998;6.250;2023-03-11T14:58:16;6.60;;;1.27;;
16665;SDS011;8446;50.998;6.250;2023-03-11T15:00:47;2.73;;;0.90;;
16665;SDS011;8446;50.998;6.250;2023-03-11T15:03:18;4.57;;;1.50;;
16665;SDS011;8446;50.998;6.250;2023-03-11T15:05:47;3.60;;;1.60;;
16665;SDS011;8446;50.998;6.250;2023-03-11T15:08:17;3.13;;;1.20;;
16665;SDS011;8446;50.998;6.250;2023-03-11T15:10:59;4.00;;;1.37;;
16665;SDS011;8446;50.998;6.250;2023-03-11T15:13:26;2.47;;;1.47;;
16665;SDS011;8446;50.998;6.250;2023-03-11T15:15:57;3.30;;;1.20;;
16665;SDS011;8446;50.998;6.250;2023-03-11T15:18:24;1.33;;;1.00;;
16665;SDS011;8446;50.998;6.250;2023-03-11T15:21:05;5.10;;;1.60;;
16665;SDS011;8446;50.998;6.250;2023-03-11T15:23:35;2.40;;;1.03;;
16665;SDS011;8446;50.998;6.250;2023-03-11T15:26:02;5.60;;;1.50;;